Terminal Aerodrome Forecast
Issued by NWS Billings, MT

Home | Current Version | Previous Version | Graphics & Text | Print | Product List | Glossary On
Versions: 1 2 3 4 5 6 7 8 9 10 11 12 13 14 15 16 17 18 19 20 21 22 23 24 25 26 27 28 29 30
000
FTUS45 KBYZ 031120
TAFMLS
TAF
KMLS 031120Z 0312/0412 16011KT P6SM VCSH BKN070
     FM031400 26011KT P6SM VCSH BKN015
     FM031700 29016G26KT P6SM SCT040 BKN110
     FM040300 29010KT P6SM BKN110=

USA.gov is the U.S. government's official web portal to all federal, state and local government web resources and services.